Lowlands Sky — 3FJW9 — position and weather

sailwx.info

Track history (hours):
 
Tides and Currents Weather Stations Pressure Air Temp Water Temp Dewpoint Dewpoint Depression Visibility Wind Speed Wind Dir Waves Ship Positions

Lowlands Sky

Last reported at 2014-Jul-31 12:33 UTC. Time now 2014-Jul-31 13:33 UTC.
Position N 33°44' W 118°10'.

Length 177 m; draft 8.5 m.

Type: Cargo ship. MMSI: 370830000.

Date/timePositionNaut miles runAvg speedWind from/ knotsBaromVisibWave heightAir tempDewpointWater temp
2014-Jul-31 12:33N 33°44' W 118°10'0 0.0
2014-Jul-31 11:33N 33°44' W 118°10'0 0.0
2014-Jul-31 10:33N 33°44' W 118°10'0 0.0
2014-Jul-31 09:33N 33°44' W 118°10'0 0.0
2014-Jul-31 08:30N 33°44' W 118°10'0 0.0
2014-Jul-31 07:33N 33°44' W 118°10'0 0.0
2014-Jul-31 06:33N 33°44' W 118°10'0 0.0
2014-Jul-31 05:33N 33°44' W 118°10'0 0.0
2014-Jul-31 04:33N 33°44' W 118°10'0 0.0
2014-Jul-31 03:33N 33°44' W 118°10'0 0.0
2014-Jul-31 02:33N 33°44' W 118°10'0 0.0
2014-Jul-31 01:33N 33°44' W 118°10'0 0.0
2014-Jul-31 00:33N 33°44' W 118°10'0 0.0
2014-Jul-30 23:33N 33°44' W 118°10'0 0.0
2014-Jul-30 22:33N 33°44' W 118°10'0 0.0
2014-Jul-30 21:33N 33°44' W 118°10'0 0.0
2014-Jul-30 20:33N 33°44' W 118°10'0 0.2
2014-Jul-30 19:33N 33°44' W 118°10'7 6.9
2014-Jul-30 18:33N 33°38' W 118°13'10 9.7
2014-Jul-30 17:34N 33°37' W 118°25'7 7.3
2014-Jul-30 16:33N 33°41' W 118°32'8 8.1
2014-Jul-30 15:33N 33°45' W 118°41'7 6.9
2014-Jul-30 14:33N 33°49' W 118°48'9 8.2
2014-Jul-30 13:30N 33°53' W 118°57'11 8.5
2014-Jul-30 12:14N 33°58' W 119°08'710.1
2014-Jul-30 11:33N 34°01' W 119°16'1413.4
2014-Jul-30 10:33N 34°06' W 119°31'1413.9
2014-Jul-30 09:34N 34°09' W 119°47'1413.4
2014-Jul-30 08:33N 34°13' W 120°03'1313.3
2014-Jul-30 07:32N 34°16' W 120°18'1312.9
2014-Jul-30 06:33N 34°20' W 120°33'1313.2
2014-Jul-30 05:34N 34°23' W 120°49'1312.9
2014-Jul-30 04:34N 34°29' W 121°02'1313.3
2014-Jul-30 03:34N 34°36' W 121°16'1312.9
2014-Jul-30 02:34N 34°43' W 121°29'1312.7
2014-Jul-30 01:34N 34°50' W 121°42'1313.0
2014-Jul-30 00:34N 34°57' W 121°56'1413.5
2014-Jul-29 23:34N 35°08' W 122°04'1313.1
2014-Jul-29 22:34N 35°19' W 122°13'1313.1
2014-Jul-29 21:34N 35°30' W 122°22'1313.1
2014-Jul-29 20:34N 35°41' W 122°31'1312.7
2014-Jul-29 19:34N 35°52' W 122°39'1111.5
2014-Jul-29 18:34N 36°01' W 122°47'1312.6
2014-Jul-29 17:33N 36°12' W 122°56'1312.9
2014-Jul-29 16:34N 36°24' W 123°03'1312.8
2014-Jul-29 15:34N 36°35' W 123°10'1313.1
2014-Jul-29 14:34N 36°47' W 123°17'1313.3
2014-Jul-29 13:34N 36°58' W 123°26'1413.1
2014-Jul-29 12:31N 37°11' W 123°33'1313.2
2014-Jul-29 11:33N 37°22' W 123°40'1313.3
2014-Jul-29 10:33N 37°34' W 123°47'1313.3
2014-Jul-29 09:33N 37°45' W 123°56'1313.5
2014-Jul-29 08:34N 37°58' W 124°03'1413.5
2014-Jul-29 07:33N 38°10' W 124°11'1313.3
2014-Jul-29 06:34N 38°21' W 124°19'1413.6
2014-Jul-29 05:33N 38°34' W 124°27'1413.8
2014-Jul-29 04:33N 38°46' W 124°35'32813.1
2014-Jul-28 03:33N 44°11' W 125°28'2713.5
2014-Jul-28 01:33N 44°38' W 125°29'1513.9
2014-Jul-28 00:29N 44°53' W 125°29'1313.7
2014-Jul-27 23:31N 45°06' W 125°30'3013.5
2014-Jul-27 21:19N 45°36' W 125°33'1013.5
2014-Jul-27 20:33N 45°46' W 125°31'1713.8
2014-Jul-27 19:21N 46°03' W 125°32'1213.5
2014-Jul-27 18:29N 46°14' W 125°32'3013.5
2014-Jul-27 16:16N 46°44' W 125°33'1013.3
2014-Jul-27 15:31N 46°54' W 125°34'8712.5
2014-Jul-27 08:33N 48°20' W 125°13'1312.8
2014-Jul-27 07:31N 48°31' W 125°01'3913.2
2014-Jul-27 04:33N 48°20' W 124°04'1413.5
2014-Jul-27 03:30N 48°16' W 123°44'1111.5
2014-Jul-27 02:32N 48°19' W 123°28'1110.6
2014-Jul-27 01:29N 48°24' W 123°13'1212.6
2014-Jul-27 00:33N 48°36' W 123°14'9 9.5
2014-Jul-26 23:33N 48°45' W 123°08'9 8.6
2014-Jul-26 22:33N 48°53' W 123°07'1313.1
2014-Jul-26 21:33N 49°02' W 123°22'1312.7
2014-Jul-26 20:33N 49°15' W 123°21'1010.1
2014-Jul-26 19:34N 49°18' W 123°06'0 0.2
2014-Jul-26 18:33N 49°18' W 123°06'0 0.0
2014-Jul-26 17:33N 49°18' W 123°06'0 0.0
2014-Jul-26 16:33N 49°18' W 123°06'0 0.0
2014-Jul-26 15:33N 49°18' W 123°06'0 0.0
2014-Jul-26 14:33N 49°18' W 123°06'0 0.1
2014-Jul-26 13:33N 49°18' W 123°06'0 0.1
2014-Jul-26 12:33N 49°18' W 123°06'0 0.0
2014-Jul-26 11:33N 49°18' W 123°06'0 0.0
2014-Jul-26 10:33N 49°18' W 123°06'0 0.0
2014-Jul-26 09:33N 49°18' W 123°06'0 0.2
2014-Jul-26 08:33N 49°18' W 123°06'0 0.0
2014-Jul-26 07:33N 49°18' W 123°06'0 0.0
2014-Jul-26 06:33N 49°18' W 123°06'0 0.0
2014-Jul-26 05:33N 49°18' W 123°06'0 0.2
2014-Jul-26 04:33N 49°18' W 123°06'0 0.1
2014-Jul-26 03:33N 49°18' W 123°06'0 0.1
2014-Jul-26 02:33N 49°18' W 123°06'0 0.0
2014-Jul-26 01:33N 49°18' W 123°06'0 0.0
2014-Jul-26 00:33N 49°18' W 123°06'0 0.1
2014-Jul-25 23:33N 49°18' W 123°06'0 0.1
2014-Jul-25 22:33N 49°18' W 123°06'0 0.2
2014-Jul-25 21:33N 49°18' W 123°06'0 0.1
2014-Jul-25 20:33N 49°18' W 123°06'0 0.2
2014-Jul-25 19:33N 49°18' W 123°06'2 1.5
2014-Jul-25 18:31N 49°18' W 123°04'0 0.0
2014-Jul-25 17:31N 49°18' W 123°04'0 0.0
2014-Jul-25 16:31N 49°18' W 123°04'0 0.0
2014-Jul-25 15:31N 49°18' W 123°04'0 0.0
2014-Jul-25 14:31N 49°18' W 123°04'0 0.0
2014-Jul-25 13:31N 49°18' W 123°04'0 0.0
2014-Jul-25 12:31N 49°18' W 123°04'0 0.0
2014-Jul-25 11:31N 49°18' W 123°04'0 0.0
2014-Jul-25 10:31N 49°18' W 123°04'0 0.0
2014-Jul-25 09:31N 49°18' W 123°04'0 0.0
2014-Jul-25 08:31N 49°18' W 123°04'0 0.0
2014-Jul-25 07:31N 49°18' W 123°04'0 0.0
2014-Jul-25 06:31N 49°18' W 123°04'0 0.0
2014-Jul-25 05:31N 49°18' W 123°04'0 0.0
2014-Jul-25 04:31N 49°18' W 123°04'0 0.0
2014-Jul-25 03:31N 49°18' W 123°04'0 0.0
2014-Jul-25 02:31N 49°18' W 123°04'0 0.0
2014-Jul-25 01:31N 49°18' W 123°04'0 0.0
2014-Jul-25 00:31N 49°18' W 123°04'0 0.0
2014-Jul-24 23:31N 49°18' W 123°04'0 0.0
2014-Jul-24 22:31N 49°18' W 123°04'0 0.0
2014-Jul-24 21:31N 49°18' W 123°04'0 0.0
2014-Jul-24 20:31N 49°18' W 123°04'0 0.0
2014-Jul-24 19:31N 49°18' W 123°04'0 0.0
2014-Jul-24 18:31N 49°18' W 123°04'0 0.0
2014-Jul-24 17:31N 49°18' W 123°04'0 0.0
2014-Jul-24 16:31N 49°18' W 123°04'0 0.0
2014-Jul-24 15:31N 49°18' W 123°04'0 0.0
2014-Jul-24 14:31N 49°18' W 123°04'0 0.0
2014-Jul-24 13:31N 49°18' W 123°04'5 5.6
2014-Jul-24 12:33N 49°19' W 123°12'1 1.2
2014-Jul-24 11:32N 49°20' W 123°13'0 0.0
2014-Jul-24 10:32N 49°20' W 123°13'0 0.0
2014-Jul-24 09:32N 49°20' W 123°13'0 0.0
2014-Jul-24 08:32N 49°20' W 123°13'0 0.0
2014-Jul-24 07:32N 49°20' W 123°13'0 0.1
2014-Jul-24 06:29N 49°20' W 123°13'0 0.1
2014-Jul-24 05:32N 49°20' W 123°13'0 0.0
2014-Jul-24 04:32N 49°20' W 123°13'0 0.1
2014-Jul-24 03:32N 49°20' W 123°13'0 0.1
2014-Jul-24 02:32N 49°20' W 123°13'0 0.0
2014-Jul-24 01:32N 49°20' W 123°13'0 0.2
2014-Jul-24 00:32N 49°20' W 123°13'0 0.1
2014-Jul-23 23:32N 49°20' W 123°13'0 0.0
2014-Jul-23 22:32N 49°20' W 123°13'0 0.1
2014-Jul-23 21:32N 49°20' W 123°13'0 0.2
2014-Jul-23 20:32N 49°20' W 123°13'0 0.1
2014-Jul-23 19:32N 49°20' W 123°13'0 0.0
2014-Jul-23 18:32N 49°20' W 123°13'0 0.0
2014-Jul-23 17:32N 49°20' W 123°13'0 0.0
2014-Jul-23 16:32N 49°20' W 123°13'0 0.0
2014-Jul-23 15:32N 49°20' W 123°13'0 0.1
2014-Jul-23 14:32N 49°20' W 123°13'0 0.0
2014-Jul-23 13:32N 49°20' W 123°13'0 0.0
2014-Jul-23 12:32N 49°20' W 123°13'0 0.0
2014-Jul-23 11:32N 49°20' W 123°13'0 0.0
2014-Jul-23 10:32N 49°20' W 123°13'0 0.0
2014-Jul-23 09:32N 49°20' W 123°13'0 0.1
2014-Jul-23 08:32N 49°20' W 123°13'0 0.1
2014-Jul-23 07:32N 49°20' W 123°13'0 0.0
2014-Jul-23 06:32N 49°20' W 123°13'0 0.1
2014-Jul-23 05:32N 49°20' W 123°13'0 0.1
2014-Jul-23 04:32N 49°20' W 123°13'0 0.0
2014-Jul-23 03:32N 49°20' W 123°13'0 0.0
2014-Jul-23 02:32N 49°20' W 123°13'0 0.0
2014-Jul-23 01:32N 49°20' W 123°13'0 0.0
2014-Jul-23 00:32N 49°20' W 123°13'0 0.1
2014-Jul-22 23:32N 49°20' W 123°13'0 0.1
2014-Jul-22 22:32N 49°20' W 123°13'0 0.0
2014-Jul-22 21:32N 49°20' W 123°13'0 0.0
2014-Jul-22 20:32N 49°20' W 123°13'0 0.0
2014-Jul-22 19:32N 49°20' W 123°13'0 0.0
2014-Jul-22 18:32N 49°20' W 123°13'0 0.1
2014-Jul-22 17:32N 49°20' W 123°13'0 0.2
2014-Jul-22 16:32N 49°20' W 123°13'0 0.0
2014-Jul-22 15:32N 49°20' W 123°13'0 0.0
2014-Jul-22 14:32N 49°20' W 123°13'0 0.1
2014-Jul-22 13:32N 49°20' W 123°13'0 0.0
2014-Jul-22 12:32N 49°20' W 123°13'0 0.1
2014-Jul-22 11:32N 49°20' W 123°13'0 0.1
2014-Jul-22 10:33N 49°20' W 123°13'0 0.0
2014-Jul-22 09:32N 49°20' W 123°13'0 0.0
2014-Jul-22 08:32N 49°20' W 123°13'0 0.0
2014-Jul-22 07:32N 49°20' W 123°13'0 0.1
2014-Jul-22 06:32N 49°20' W 123°13'0 0.1
2014-Jul-22 05:32N 49°20' W 123°13'0 0.0
2014-Jul-22 04:32N 49°20' W 123°13'0 0.1
2014-Jul-22 03:32N 49°20' W 123°13'0 0.0
2014-Jul-22 02:32N 49°20' W 123°13'0 0.0
2014-Jul-22 01:32N 49°20' W 123°13'0 0.1
2014-Jul-22 00:32N 49°20' W 123°13'0 0.2
2014-Jul-21 23:32N 49°20' W 123°13'0 0.0
2014-Jul-21 22:32N 49°20' W 123°13'0 0.0
2014-Jul-21 21:32N 49°20' W 123°13'0 0.0
2014-Jul-21 20:32N 49°20' W 123°13'0 0.0
2014-Jul-21 20:17N 49°20' W 123°13'0 0.0
2014-Jul-21 19:32N 49°20' W 123°13'0 0.2
2014-Jul-21 18:32N 49°20' W 123°13'0 0.0
2014-Jul-21 17:32N 49°20' W 123°13'0 0.0
2014-Jul-21 16:32N 49°20' W 123°13'0 0.0
2014-Jul-21 15:32N 49°20' W 123°13'0 0.0
2014-Jul-21 14:32N 49°20' W 123°13'0 0.0
2014-Jul-21 13:32N 49°20' W 123°13'  
Track history (hours):
 
Tides and Currents Weather Stations Pressure Air Temp Water Temp Dewpoint Dewpoint Depression Visibility Wind Speed Wind Dir Waves Ship Positions

Lowlands Sky

Last reported at 2014-Jul-31 12:33 UTC. Time now 2014-Jul-31 13:33 UTC.
Position N 33°44' W 118°10'.

Length 177 m; draft 8.5 m.

Type: Cargo ship. MMSI: 370830000.

Date/timePositionNaut miles runAvg speedWind from/ knotsBaromVisibWave heightAir tempDewpointWater temp
2014-Jul-31 12:33N 33°44' W 118°10'0 0.0
2014-Jul-31 11:33N 33°44' W 118°10'0 0.0
2014-Jul-31 10:33N 33°44' W 118°10'0 0.0
2014-Jul-31 09:33N 33°44' W 118°10'0 0.0
2014-Jul-31 08:30N 33°44' W 118°10'0 0.0
2014-Jul-31 07:33N 33°44' W 118°10'0 0.0
2014-Jul-31 06:33N 33°44' W 118°10'0 0.0
2014-Jul-31 05:33N 33°44' W 118°10'0 0.0
2014-Jul-31 04:33N 33°44' W 118°10'0 0.0
2014-Jul-31 03:33N 33°44' W 118°10'0 0.0
2014-Jul-31 02:33N 33°44' W 118°10'0 0.0
2014-Jul-31 01:33N 33°44' W 118°10'0 0.0
2014-Jul-31 00:33N 33°44' W 118°10'0 0.0
2014-Jul-30 23:33N 33°44' W 118°10'0 0.0
2014-Jul-30 22:33N 33°44' W 118°10'0 0.0
2014-Jul-30 21:33N 33°44' W 118°10'0 0.0
2014-Jul-30 20:33N 33°44' W 118°10'0 0.2
2014-Jul-30 19:33N 33°44' W 118°10'7 6.9
2014-Jul-30 18:33N 33°38' W 118°13'10 9.7
2014-Jul-30 17:34N 33°37' W 118°25'7 7.3
2014-Jul-30 16:33N 33°41' W 118°32'8 8.1
2014-Jul-30 15:33N 33°45' W 118°41'7 6.9
2014-Jul-30 14:33N 33°49' W 118°48'9 8.2
2014-Jul-30 13:30N 33°53' W 118°57'11 8.5
2014-Jul-30 12:14N 33°58' W 119°08'710.1
2014-Jul-30 11:33N 34°01' W 119°16'1413.4
2014-Jul-30 10:33N 34°06' W 119°31'1413.9
2014-Jul-30 09:34N 34°09' W 119°47'1413.4
2014-Jul-30 08:33N 34°13' W 120°03'1313.3
2014-Jul-30 07:32N 34°16' W 120°18'1312.9
2014-Jul-30 06:33N 34°20' W 120°33'1313.2
2014-Jul-30 05:34N 34°23' W 120°49'1312.9
2014-Jul-30 04:34N 34°29' W 121°02'1313.3
2014-Jul-30 03:34N 34°36' W 121°16'1312.9
2014-Jul-30 02:34N 34°43' W 121°29'1312.7
2014-Jul-30 01:34N 34°50' W 121°42'1313.0
2014-Jul-30 00:34N 34°57' W 121°56'1413.5
2014-Jul-29 23:34N 35°08' W 122°04'1313.1
2014-Jul-29 22:34N 35°19' W 122°13'1313.1
2014-Jul-29 21:34N 35°30' W 122°22'1313.1
2014-Jul-29 20:34N 35°41' W 122°31'1312.7
2014-Jul-29 19:34N 35°52' W 122°39'1111.5
2014-Jul-29 18:34N 36°01' W 122°47'1312.6
2014-Jul-29 17:33N 36°12' W 122°56'1312.9
2014-Jul-29 16:34N 36°24' W 123°03'1312.8
2014-Jul-29 15:34N 36°35' W 123°10'1313.1
2014-Jul-29 14:34N 36°47' W 123°17'1313.3
2014-Jul-29 13:34N 36°58' W 123°26'1413.1
2014-Jul-29 12:31N 37°11' W 123°33'1313.2
2014-Jul-29 11:33N 37°22' W 123°40'1313.3
2014-Jul-29 10:33N 37°34' W 123°47'1313.3
2014-Jul-29 09:33N 37°45' W 123°56'1313.5
2014-Jul-29 08:34N 37°58' W 124°03'1413.5
2014-Jul-29 07:33N 38°10' W 124°11'1313.3
2014-Jul-29 06:34N 38°21' W 124°19'1413.6
2014-Jul-29 05:33N 38°34' W 124°27'1413.8
2014-Jul-29 04:33N 38°46' W 124°35'32813.1
2014-Jul-28 03:33N 44°11' W 125°28'2713.5
2014-Jul-28 01:33N 44°38' W 125°29'1513.9
2014-Jul-28 00:29N 44°53' W 125°29'1313.7
2014-Jul-27 23:31N 45°06' W 125°30'3013.5
2014-Jul-27 21:19N 45°36' W 125°33'1013.5
2014-Jul-27 20:33N 45°46' W 125°31'1713.8
2014-Jul-27 19:21N 46°03' W 125°32'1213.5
2014-Jul-27 18:29N 46°14' W 125°32'3013.5
2014-Jul-27 16:16N 46°44' W 125°33'1013.3
2014-Jul-27 15:31N 46°54' W 125°34'8712.5
2014-Jul-27 08:33N 48°20' W 125°13'1312.8
2014-Jul-27 07:31N 48°31' W 125°01'3913.2
2014-Jul-27 04:33N 48°20' W 124°04'1413.5
2014-Jul-27 03:30N 48°16' W 123°44'1111.5
2014-Jul-27 02:32N 48°19' W 123°28'1110.6
2014-Jul-27 01:29N 48°24' W 123°13'1212.6
2014-Jul-27 00:33N 48°36' W 123°14'9 9.5
2014-Jul-26 23:33N 48°45' W 123°08'9 8.6
2014-Jul-26 22:33N 48°53' W 123°07'1313.1
2014-Jul-26 21:33N 49°02' W 123°22'1312.7
2014-Jul-26 20:33N 49°15' W 123°21'1010.1
2014-Jul-26 19:34N 49°18' W 123°06'0 0.2
2014-Jul-26 18:33N 49°18' W 123°06'0 0.0
2014-Jul-26 17:33N 49°18' W 123°06'0 0.0
2014-Jul-26 16:33N 49°18' W 123°06'0 0.0
2014-Jul-26 15:33N 49°18' W 123°06'0 0.0
2014-Jul-26 14:33N 49°18' W 123°06'0 0.1
2014-Jul-26 13:33N 49°18' W 123°06'0 0.1
2014-Jul-26 12:33N 49°18' W 123°06'0 0.0
2014-Jul-26 11:33N 49°18' W 123°06'0 0.0
2014-Jul-26 10:33N 49°18' W 123°06'0 0.0
2014-Jul-26 09:33N 49°18' W 123°06'0 0.2
2014-Jul-26 08:33N 49°18' W 123°06'0 0.0
2014-Jul-26 07:33N 49°18' W 123°06'0 0.0
2014-Jul-26 06:33N 49°18' W 123°06'0 0.0
2014-Jul-26 05:33N 49°18' W 123°06'0 0.2
2014-Jul-26 04:33N 49°18' W 123°06'0 0.1
2014-Jul-26 03:33N 49°18' W 123°06'0 0.1
2014-Jul-26 02:33N 49°18' W 123°06'0 0.0
2014-Jul-26 01:33N 49°18' W 123°06'0 0.0
2014-Jul-26 00:33N 49°18' W 123°06'0 0.1
2014-Jul-25 23:33N 49°18' W 123°06'0 0.1
2014-Jul-25 22:33N 49°18' W 123°06'0 0.2
2014-Jul-25 21:33N 49°18' W 123°06'0 0.1
2014-Jul-25 20:33N 49°18' W 123°06'0 0.2
2014-Jul-25 19:33N 49°18' W 123°06'2 1.5
2014-Jul-25 18:31N 49°18' W 123°04'0 0.0
2014-Jul-25 17:31N 49°18' W 123°04'0 0.0
2014-Jul-25 16:31N 49°18' W 123°04'0 0.0
2014-Jul-25 15:31N 49°18' W 123°04'0 0.0
2014-Jul-25 14:31N 49°18' W 123°04'0 0.0
2014-Jul-25 13:31N 49°18' W 123°04'0 0.0
2014-Jul-25 12:31N 49°18' W 123°04'0 0.0
2014-Jul-25 11:31N 49°18' W 123°04'0 0.0
2014-Jul-25 10:31N 49°18' W 123°04'0 0.0
2014-Jul-25 09:31N 49°18' W 123°04'0 0.0
2014-Jul-25 08:31N 49°18' W 123°04'0 0.0
2014-Jul-25 07:31N 49°18' W 123°04'0 0.0
2014-Jul-25 06:31N 49°18' W 123°04'0 0.0
2014-Jul-25 05:31N 49°18' W 123°04'0 0.0
2014-Jul-25 04:31N 49°18' W 123°04'0 0.0
2014-Jul-25 03:31N 49°18' W 123°04'0 0.0
2014-Jul-25 02:31N 49°18' W 123°04'0 0.0
2014-Jul-25 01:31N 49°18' W 123°04'0 0.0
2014-Jul-25 00:31N 49°18' W 123°04'0 0.0
2014-Jul-24 23:31N 49°18' W 123°04'0 0.0
2014-Jul-24 22:31N 49°18' W 123°04'0 0.0
2014-Jul-24 21:31N 49°18' W 123°04'0 0.0
2014-Jul-24 20:31N 49°18' W 123°04'0 0.0
2014-Jul-24 19:31N 49°18' W 123°04'0 0.0
2014-Jul-24 18:31N 49°18' W 123°04'0 0.0
2014-Jul-24 17:31N 49°18' W 123°04'0 0.0
2014-Jul-24 16:31N 49°18' W 123°04'0 0.0
2014-Jul-24 15:31N 49°18' W 123°04'0 0.0
2014-Jul-24 14:31N 49°18' W 123°04'0 0.0
2014-Jul-24 13:31N 49°18' W 123°04'5 5.6
2014-Jul-24 12:33N 49°19' W 123°12'1 1.2
2014-Jul-24 11:32N 49°20' W 123°13'0 0.0
2014-Jul-24 10:32N 49°20' W 123°13'0 0.0
2014-Jul-24 09:32N 49°20' W 123°13'0 0.0
2014-Jul-24 08:32N 49°20' W 123°13'0 0.0
2014-Jul-24 07:32N 49°20' W 123°13'0 0.1
2014-Jul-24 06:29N 49°20' W 123°13'0 0.1
2014-Jul-24 05:32N 49°20' W 123°13'0 0.0
2014-Jul-24 04:32N 49°20' W 123°13'0 0.1
2014-Jul-24 03:32N 49°20' W 123°13'0 0.1
2014-Jul-24 02:32N 49°20' W 123°13'0 0.0
2014-Jul-24 01:32N 49°20' W 123°13'0 0.2
2014-Jul-24 00:32N 49°20' W 123°13'0 0.1
2014-Jul-23 23:32N 49°20' W 123°13'0 0.0
2014-Jul-23 22:32N 49°20' W 123°13'0 0.1
2014-Jul-23 21:32N 49°20' W 123°13'0 0.2
2014-Jul-23 20:32N 49°20' W 123°13'0 0.1
2014-Jul-23 19:32N 49°20' W 123°13'0 0.0
2014-Jul-23 18:32N 49°20' W 123°13'0 0.0
2014-Jul-23 17:32N 49°20' W 123°13'0 0.0
2014-Jul-23 16:32N 49°20' W 123°13'0 0.0
2014-Jul-23 15:32N 49°20' W 123°13'0 0.1
2014-Jul-23 14:32N 49°20' W 123°13'0 0.0
2014-Jul-23 13:32N 49°20' W 123°13'0 0.0
2014-Jul-23 12:32N 49°20' W 123°13'0 0.0
2014-Jul-23 11:32N 49°20' W 123°13'0 0.0
2014-Jul-23 10:32N 49°20' W 123°13'0 0.0
2014-Jul-23 09:32N 49°20' W 123°13'0 0.1
2014-Jul-23 08:32N 49°20' W 123°13'0 0.1
2014-Jul-23 07:32N 49°20' W 123°13'0 0.0
2014-Jul-23 06:32N 49°20' W 123°13'0 0.1
2014-Jul-23 05:32N 49°20' W 123°13'0 0.1
2014-Jul-23 04:32N 49°20' W 123°13'0 0.0
2014-Jul-23 03:32N 49°20' W 123°13'0 0.0
2014-Jul-23 02:32N 49°20' W 123°13'0 0.0
2014-Jul-23 01:32N 49°20' W 123°13'0 0.0
2014-Jul-23 00:32N 49°20' W 123°13'0 0.1
2014-Jul-22 23:32N 49°20' W 123°13'0 0.1
2014-Jul-22 22:32N 49°20' W 123°13'0 0.0
2014-Jul-22 21:32N 49°20' W 123°13'0 0.0
2014-Jul-22 20:32N 49°20' W 123°13'0 0.0
2014-Jul-22 19:32N 49°20' W 123°13'0 0.0
2014-Jul-22 18:32N 49°20' W 123°13'0 0.1
2014-Jul-22 17:32N 49°20' W 123°13'0 0.2
2014-Jul-22 16:32N 49°20' W 123°13'0 0.0
2014-Jul-22 15:32N 49°20' W 123°13'0 0.0
2014-Jul-22 14:32N 49°20' W 123°13'0 0.1
2014-Jul-22 13:32N 49°20' W 123°13'0 0.0
2014-Jul-22 12:32N 49°20' W 123°13'0 0.1
2014-Jul-22 11:32N 49°20' W 123°13'0 0.1
2014-Jul-22 10:33N 49°20' W 123°13'0 0.0
2014-Jul-22 09:32N 49°20' W 123°13'0 0.0
2014-Jul-22 08:32N 49°20' W 123°13'0 0.0
2014-Jul-22 07:32N 49°20' W 123°13'0 0.1
2014-Jul-22 06:32N 49°20' W 123°13'0 0.1
2014-Jul-22 05:32N 49°20' W 123°13'0 0.0
2014-Jul-22 04:32N 49°20' W 123°13'0 0.1
2014-Jul-22 03:32N 49°20' W 123°13'0 0.0
2014-Jul-22 02:32N 49°20' W 123°13'0 0.0
2014-Jul-22 01:32N 49°20' W 123°13'0 0.1
2014-Jul-22 00:32N 49°20' W 123°13'0 0.2
2014-Jul-21 23:32N 49°20' W 123°13'0 0.0
2014-Jul-21 22:32N 49°20' W 123°13'0 0.0
2014-Jul-21 21:32N 49°20' W 123°13'0 0.0
2014-Jul-21 20:32N 49°20' W 123°13'0 0.0
2014-Jul-21 20:17N 49°20' W 123°13'0 0.0
2014-Jul-21 19:32N 49°20' W 123°13'0 0.2
2014-Jul-21 18:32N 49°20' W 123°13'0 0.0
2014-Jul-21 17:32N 49°20' W 123°13'0 0.0
2014-Jul-21 16:32N 49°20' W 123°13'0 0.0
2014-Jul-21 15:32N 49°20' W 123°13'0 0.0
2014-Jul-21 14:32N 49°20' W 123°13'0 0.0
2014-Jul-21 13:32N 49°20' W 123°13'  

Dump ship's entire track history